createdAt,value
2017-05-22T00:00:53.121Z,67.76
2017-05-22T00:02:08.477Z,67.94
2017-05-22T00:03:22.727Z,67.94
2017-05-22T00:04:36.998Z,67.85
2017-05-22T00:05:51.061Z,67.94
2017-05-22T00:07:03.910Z,68.04
2017-05-22T00:08:18.083Z,68.23
2017-05-22T00:09:32.335Z,68.04
2017-05-22T00:10:46.414Z,67.94
2017-05-22T00:12:01.746Z,67.76
2017-05-22T00:13:17.094Z,68.04
2017-05-22T00:14:32.640Z,68.33
2017-05-22T00:15:47.974Z,67.85
2017-05-22T00:17:01.915Z,67.94
2017-05-22T00:18:17.235Z,67.94
2017-05-22T00:19:32.783Z,67.94
2017-05-22T00:20:46.858Z,68.04
2017-05-22T00:22:02.191Z,68.13
2017-05-22T00:23:16.274Z,68.23
2017-05-22T00:24:31.894Z,68.04
2017-05-22T00:25:45.609Z,67.85
2017-05-22T00:27:00.974Z,68.33
2017-05-22T00:28:16.566Z,68.23
2017-05-22T00:29:31.262Z,68.62
2017-05-22T00:30:45.305Z,68.62
2017-05-22T00:32:00.899Z,68.42
2017-05-22T00:33:16.475Z,68.8
2017-05-22T00:34:31.543Z,68.8
2017-05-22T00:35:45.574Z,68.58
2017-05-22T00:37:00.530Z,68.62
2017-05-22T00:38:13.300Z,68.71
2017-05-22T00:39:28.680Z,68.58
2017-05-22T00:40:44.213Z,68.96
2017-05-22T00:41:59.574Z,68.58
2017-05-22T00:43:13.622Z,68.58
2017-05-22T00:44:26.261Z,68.68
2017-05-22T00:45:41.523Z,68.71
2017-05-22T00:46:57.193Z,68.58
2017-05-22T00:48:12.556Z,68.58
2017-05-22T00:49:27.890Z,68.58
2017-05-22T00:50:43.588Z,68.49
2017-05-22T00:51:58.910Z,68.68
2017-05-22T00:53:12.954Z,68.49
2017-05-22T00:54:28.508Z,68.58
2017-05-22T00:55:42.805Z,68.68
2017-05-22T00:56:58.155Z,68.68
2017-05-22T00:58:13.511Z,68.68
2017-05-22T00:59:29.068Z,68.49
2017-05-22T01:00:44.589Z,68.96
2017-05-22T01:01:59.924Z,68.77
2017-05-22T01:03:15.308Z,68.96
2017-05-22T01:04:29.353Z,68.77
2017-05-22T01:05:43.620Z,68.58
2017-05-22T01:06:55.104Z,68.58
2017-05-22T01:08:10.432Z,68.58
2017-05-22T01:09:25.984Z,68.87
2017-05-22T01:10:40.295Z,68.58
2017-05-22T01:11:54.354Z,68.77
2017-05-22T01:13:07.355Z,68.58
2017-05-22T01:14:22.669Z,68.39
2017-05-22T01:15:36.831Z,68.01
2017-05-22T01:16:51.088Z,68.2
2017-05-22T01:18:06.417Z,68.58
2017-05-22T01:19:21.850Z,68.39
2017-05-22T01:20:35.920Z,68.39
2017-05-22T01:21:50.226Z,68.49
2017-05-22T01:23:04.274Z,68.39
2017-05-22T01:24:19.679Z,68.39
2017-05-22T01:25:35.019Z,68.58
2017-05-22T01:26:50.541Z,68.49
2017-05-22T01:28:05.888Z,68.29
2017-05-22T01:29:21.223Z,68.39
2017-05-22T01:30:36.648Z,68.2
2017-05-22T01:31:52.191Z,68.39
2017-05-22T01:33:07.512Z,68.49
2017-05-22T01:34:21.734Z,68.49
2017-05-22T01:35:37.140Z,68.35
2017-05-22T01:36:52.766Z,68.58
2017-05-22T01:38:08.099Z,68.74
2017-05-22T01:39:22.108Z,68.68
2017-05-22T01:40:36.048Z,68.64
2017-05-22T01:41:50.297Z,68.84
2017-05-22T01:43:05.686Z,68.55
2017-05-22T01:44:19.740Z,68.55
2017-05-22T01:45:35.086Z,68.84
2017-05-22T01:46:49.437Z,68.45
2017-05-22T01:48:03.721Z,68.84
2017-05-22T01:49:19.052Z,68.55
2017-05-22T01:50:31.808Z,68.35
2017-05-22T01:51:47.346Z,68.26
2017-05-22T01:53:02.770Z,68.26
2017-05-22T01:54:15.553Z,68.55
2017-05-22T01:55:30.954Z,68.16
2017-05-22T01:56:45.029Z,68.16
2017-05-22T01:58:00.624Z,68.16
2017-05-22T01:59:15.957Z,68.07
2017-05-22T02:00:31.338Z,68.26
2017-05-22T02:01:45.384Z,68.16
2017-05-22T02:02:59.671Z,68.16
2017-05-22T02:04:15.064Z,67.97
2017-05-22T02:05:30.420Z,68.35
2017-05-22T02:06:45.750Z,68.35
2017-05-22T02:07:59.065Z,68.16
2017-05-22T02:09:13.108Z,68.35
2017-05-22T02:10:25.891Z,68.35
2017-05-22T02:11:41.230Z,68.84
2017-05-22T02:12:57.040Z,68.74
2017-05-22T02:14:11.099Z,68.64
2017-05-22T02:15:26.406Z,68.74
2017-05-22T02:16:41.767Z,68.64
2017-05-22T02:17:57.340Z,68.74
2017-05-22T02:19:11.379Z,69.12
2017-05-22T02:20:25.653Z,68.55
2017-05-22T02:21:39.749Z,68.84
2017-05-22T02:22:55.347Z,68.45
2017-05-22T02:24:07.727Z,68.93
2017-05-22T02:25:23.091Z,68.64
2017-05-22T02:26:37.123Z,68.55
2017-05-22T02:27:51.088Z,68.55
2017-05-22T02:29:05.258Z,68.74
2017-05-22T02:30:19.196Z,68.55
2017-05-22T02:31:31.696Z,68.64
2017-05-22T02:32:44.460Z,68.84
2017-05-22T02:33:59.995Z,68.84
2017-05-22T02:35:14.040Z,68.84
2017-05-22T02:36:29.395Z,68.64
2017-05-22T02:37:44.813Z,68.74
2017-05-22T02:39:00.338Z,68.84
2017-05-22T02:40:14.428Z,68.93
2017-05-22T02:41:27.047Z,68.74
2017-05-22T02:42:41.124Z,68.64
2017-05-22T02:43:56.477Z,68.84
2017-05-22T02:45:10.717Z,68.68
2017-05-22T02:46:23.471Z,68.68
2017-05-22T02:47:37.509Z,68.93
2017-05-22T02:48:51.625Z,68.58
2017-05-22T02:50:07.291Z,68.93
2017-05-22T02:51:22.655Z,68.68
2017-05-22T02:52:35.333Z,68.58
2017-05-22T02:53:49.379Z,68.68
2017-05-22T02:55:02.710Z,68.49
2017-05-22T02:56:18.060Z,68.87
2017-05-22T02:57:33.389Z,68.58
2017-05-22T02:58:48.821Z,68.77
2017-05-22T03:00:03.204Z,68.58
2017-05-22T03:01:18.527Z,68.58
2017-05-22T03:02:32.432Z,68.58
2017-05-22T03:03:43.929Z,68.39
2017-05-22T03:04:57.991Z,68.58
2017-05-22T03:06:10.994Z,68.77
2017-05-22T03:07:25.951Z,68.58
2017-05-22T03:08:39.996Z,68.77
2017-05-22T03:09:55.569Z,68.68
2017-05-22T03:11:11.219Z,68.77
2017-05-22T03:12:26.574Z,68.58
2017-05-22T03:13:40.613Z,68.87
2017-05-22T03:14:54.649Z,68.87
2017-05-22T03:16:10.488Z,68.77
2017-05-22T03:17:23.275Z,68.58
2017-05-22T03:18:38.734Z,68.68
2017-05-22T03:19:54.294Z,68.1
2017-05-22T03:21:09.828Z,68.49
2017-05-22T03:22:25.192Z,67.82
2017-05-22T03:23:40.516Z,67.63
2017-05-22T03:24:56.141Z,67.72
2017-05-22T03:26:11.704Z,67.34
2017-05-22T03:27:27.059Z,66
2017-05-22T03:28:41.117Z,66.28
2017-05-22T03:29:56.529Z,66.41
2017-05-22T03:31:12.575Z,66.61
2017-05-22T03:32:27.917Z,65.94
2017-05-22T03:33:41.835Z,66.03
2017-05-22T03:34:57.203Z,66.57
2017-05-22T03:36:12.827Z,66.89
2017-05-22T03:37:28.231Z,66.99
2017-05-22T03:38:43.640Z,66.41
2017-05-22T03:39:58.969Z,65.94
2017-05-22T03:41:14.553Z,65.94
2017-05-22T03:42:28.263Z,66.22
2017-05-22T03:43:43.604Z,65.74
2017-05-22T03:44:57.646Z,66.13
2017-05-22T03:46:13.182Z,66.32
2017-05-22T03:47:28.511Z,66.61
2017-05-22T03:48:42.562Z,66.89
2017-05-22T03:49:56.619Z,66.8
2017-05-22T03:51:11.971Z,67.37
2017-05-22T03:52:26.282Z,67.18
2017-05-22T03:53:39.164Z,67.34
2017-05-22T03:54:54.781Z,67.63
2017-05-22T03:56:10.192Z,67.85
2017-05-22T03:57:25.715Z,68.01
2017-05-22T03:58:39.750Z,67.91
2017-05-22T03:59:54.738Z,67.82
2017-05-22T04:01:10.090Z,68.1
2017-05-22T04:02:24.189Z,68.39
2017-05-22T04:03:38.250Z,68.01
2017-05-22T04:04:53.608Z,68.39
2017-05-22T04:06:07.550Z,68.39
2017-05-22T04:07:21.656Z,67.91
2017-05-22T04:08:35.562Z,68.39
2017-05-22T04:09:50.968Z,68.2
2017-05-22T04:11:05.022Z,68.01
2017-05-22T04:12:19.080Z,67.63
2017-05-22T04:13:33.448Z,67.27
2017-05-22T04:14:48.804Z,66.89
2017-05-22T04:16:02.744Z,66.41
2017-05-22T04:17:15.358Z,66.03
2017-05-22T04:18:30.938Z,66.41
2017-05-22T04:19:46.379Z,66.03
2017-05-22T04:20:59.033Z,65.36
2017-05-22T04:22:14.388Z,65.65
2017-05-22T04:23:30.202Z,65.55
2017-05-22T04:24:42.837Z,65.45
2017-05-22T04:25:58.189Z,65.45
2017-05-22T04:27:13.516Z,64.88
2017-05-22T04:28:29.151Z,64.5
2017-05-22T04:29:44.632Z,64.34
2017-05-22T04:30:58.735Z,63.73
2017-05-22T04:32:14.144Z,63.35
2017-05-22T04:33:28.457Z,63.86
2017-05-22T04:34:41.224Z,63.39
2017-05-22T04:35:55.368Z,62.9
2017-05-22T04:37:10.774Z,61.85
2017-05-22T04:38:24.693Z,61.47
2017-05-22T04:39:40.283Z,61.4
2017-05-22T04:40:54.371Z,60.93
2017-05-22T04:42:09.741Z,60.8
2017-05-22T04:43:23.778Z,60.16
2017-05-22T04:44:39.327Z,60.22
2017-05-22T04:45:54.665Z,60.35
2017-05-22T04:47:08.808Z,59.97
2017-05-22T04:48:22.868Z,60.16
2017-05-22T04:49:38.487Z,59.87
2017-05-22T04:50:51.561Z,59.48
2017-05-22T04:52:05.599Z,59.77
2017-05-22T04:53:19.645Z,59.2
2017-05-22T04:54:35.231Z,59.11
2017-05-22T04:55:50.635Z,59.2
2017-05-22T04:57:06.042Z,59.39
2017-05-22T04:58:21.471Z,59.11
2017-05-22T04:59:36.487Z,59.11
2017-05-22T05:00:52.194Z,58.72
2017-05-22T05:02:06.153Z,58.91
2017-05-22T05:03:20.356Z,58.81
2017-05-22T05:04:34.478Z,58.91
2017-05-22T05:05:50.058Z,59.01
2017-05-22T05:07:02.823Z,58.81
2017-05-22T05:08:16.760Z,58.34
2017-05-22T05:09:31.168Z,58.24
2017-05-22T05:10:46.739Z,58.44
2017-05-22T05:12:00.782Z,58.44
2017-05-22T05:13:14.834Z,58.15
2017-05-22T05:14:28.788Z,57.89
2017-05-22T05:15:42.939Z,58.08
2017-05-22T05:16:55.752Z,58.17
2017-05-22T05:18:09.801Z,57.7
2017-05-22T05:19:25.164Z,57.6
2017-05-22T05:20:40.733Z,57.31
2017-05-22T05:21:55.490Z,57.12
2017-05-22T05:23:40.409Z,57.41
2017-05-22T05:24:56.013Z,57.03
2017-05-22T05:26:11.628Z,56.74
2017-05-22T05:27:24.270Z,56.83
2017-05-22T05:28:38.627Z,56.35
2017-05-22T05:29:54.217Z,56.54
2017-05-22T05:31:08.530Z,56.54
2017-05-22T05:32:24.039Z,56.35
2017-05-22T05:33:39.489Z,56.45
2017-05-22T05:34:53.555Z,56.16
2017-05-22T05:36:09.088Z,56.26
2017-05-22T05:37:24.474Z,56.26
2017-05-22T05:38:39.813Z,56.07
2017-05-22T05:39:55.167Z,55.58
2017-05-22T05:41:11.006Z,55.49
2017-05-22T05:42:26.395Z,55.4
2017-05-22T05:43:40.312Z,55.49
2017-05-22T05:44:54.434Z,55.21
2017-05-22T05:46:08.525Z,55.49
2017-05-22T05:47:22.872Z,55.4
2017-05-22T05:48:35.646Z,55.4
2017-05-22T05:49:50.982Z,55.4
2017-05-22T05:51:05.118Z,55.3
2017-05-22T05:52:20.714Z,55.49
2017-05-22T05:53:36.055Z,55.4
2017-05-22T05:54:51.417Z,55.87
2017-05-22T05:56:06.756Z,55.3
2017-05-22T05:57:22.333Z,55.33
2017-05-22T05:58:37.671Z,54.94
2017-05-22T05:59:51.730Z,55.04
2017-05-22T06:01:07.057Z,55.13
2017-05-22T06:02:22.959Z,55.04
2017-05-22T06:03:38.570Z,55.04
2017-05-22T06:04:52.633Z,55.23
2017-05-22T06:06:07.969Z,55.23
2017-05-22T06:07:23.833Z,55.04
2017-05-22T06:08:38.182Z,55.04
2017-05-22T06:09:50.997Z,55.04
2017-05-22T06:11:06.389Z,54.56
2017-05-22T06:12:22.081Z,54.49
2017-05-22T06:13:34.837Z,54.49
2017-05-22T06:14:48.899Z,54.3
2017-05-22T06:16:04.258Z,53.91
2017-05-22T06:17:19.844Z,54.21
2017-05-22T06:18:34.182Z,53.53
2017-05-22T06:19:49.534Z,53.44
2017-05-22T06:21:04.888Z,53.27
2017-05-22T06:22:20.484Z,52.86
2017-05-22T06:23:36.116Z,52.76
2017-05-22T06:24:49.011Z,52.67
2017-05-22T06:26:04.436Z,52.79
2017-05-22T06:27:19.804Z,52.4
2017-05-22T06:28:32.765Z,52.5
2017-05-22T06:29:48.106Z,52.4
2017-05-22T06:31:03.460Z,52.31
2017-05-22T06:32:18.832Z,52.69
2017-05-22T06:33:34.468Z,52.22
2017-05-22T06:34:49.822Z,52.5
2017-05-22T06:36:04.103Z,52.02
2017-05-22T06:37:18.241Z,51.93
2017-05-22T06:38:33.839Z,51.83
2017-05-22T06:39:49.171Z,51.45
2017-05-22T06:41:04.598Z,51.45
2017-05-22T06:42:19.591Z,51.64
2017-05-22T06:43:35.368Z,51.54
2017-05-22T06:44:50.899Z,51.35
2017-05-22T06:46:04.951Z,51.54
2017-05-22T06:47:20.350Z,51.45
2017-05-22T06:48:34.716Z,51.64
2017-05-22T06:49:48.797Z,51.18
2017-05-22T06:51:04.371Z,51.35
2017-05-22T06:52:19.425Z,51.37
2017-05-22T06:53:35.127Z,50.99
2017-05-22T06:54:47.912Z,50.9
2017-05-22T06:56:02.003Z,50.42
2017-05-22T06:57:17.485Z,50.7
2017-05-22T06:58:33.047Z,50.42
2017-05-22T06:59:44.175Z,50.51
2017-05-22T07:00:58.232Z,49.93
2017-05-22T07:02:12.307Z,50.23
2017-05-22T07:03:23.527Z,50.13
2017-05-22T07:04:36.394Z,50.03
2017-05-22T07:05:51.820Z,49.46
2017-05-22T07:07:07.181Z,49.65
2017-05-22T07:08:22.552Z,49.55
2017-05-22T07:09:37.892Z,49.46
2017-05-22T07:10:50.964Z,48.9
2017-05-22T07:12:06.327Z,49
2017-05-22T07:13:21.658Z,48.61
2017-05-22T07:14:37.427Z,48.33
2017-05-22T07:15:51.576Z,48.52
2017-05-22T07:17:05.521Z,48.23
2017-05-22T07:18:20.942Z,47.75
2017-05-22T07:19:36.300Z,47.08
2017-05-22T07:20:52.109Z,47.08
2017-05-22T07:22:06.204Z,47.46
2017-05-22T07:23:21.561Z,46.69
2017-05-22T07:24:36.955Z,47.36
2017-05-22T07:25:51.236Z,47
2017-05-22T07:27:05.693Z,46.62
2017-05-22T07:28:19.379Z,46.72
2017-05-22T07:29:32.141Z,46.72
2017-05-22T07:30:47.931Z,46.23
2017-05-22T07:32:03.259Z,45.95
2017-05-22T07:33:18.826Z,45.76
2017-05-22T07:34:32.907Z,45.85
2017-05-22T07:35:47.374Z,45.76
2017-05-22T07:37:02.706Z,45.47
2017-05-22T07:38:16.973Z,45.85
2017-05-22T07:39:30.902Z,45.85
2017-05-22T07:40:43.746Z,45.85
2017-05-22T07:41:56.973Z,46.04
2017-05-22T07:43:09.613Z,46.23
2017-05-22T07:44:23.667Z,46.33
2017-05-22T07:45:36.322Z,46.14
2017-05-22T07:46:50.491Z,46.16
2017-05-22T07:48:05.821Z,46.43
2017-05-22T07:49:21.170Z,45.87
2017-05-22T07:50:36.544Z,45.59
2017-05-22T07:51:52.120Z,45.87
2017-05-22T07:53:07.477Z,45.78
2017-05-22T07:54:22.817Z,46.06
2017-05-22T07:55:35.489Z,45.87
2017-05-22T07:56:51.036Z,46.14
2017-05-22T07:58:06.424Z,44.43
2017-05-22T07:59:20.474Z,44.02
2017-05-22T08:00:35.811Z,44.22
2017-05-22T08:01:50.115Z,44.79
2017-05-22T08:03:02.754Z,44.6
2017-05-22T08:04:18.144Z,44.51
2017-05-22T08:05:33.492Z,44.7
2017-05-22T08:06:48.862Z,44.22
2017-05-22T08:08:03.185Z,44.43
2017-05-22T08:09:18.601Z,43.26
2017-05-22T08:10:33.941Z,42.8
2017-05-22T08:11:49.286Z,42.77
2017-05-22T08:13:04.605Z,42.87
2017-05-22T08:14:20.035Z,43.35
2017-05-22T08:15:35.608Z,43.26
2017-05-22T08:16:50.943Z,43.26
2017-05-22T08:18:06.510Z,43.66
2017-05-22T08:19:21.847Z,43.85
2017-05-22T08:20:37.224Z,43.57
2017-05-22T08:21:52.598Z,43.47
2017-05-22T08:23:06.970Z,43.4
2017-05-22T08:24:22.327Z,43.49
2017-05-22T08:25:34.963Z,43.01
2017-05-22T08:26:50.336Z,42.63
2017-05-22T08:28:04.632Z,42.43
2017-05-22T08:29:20.074Z,42.82
2017-05-22T08:30:34.082Z,42.63
2017-05-22T08:31:49.632Z,43.23
2017-05-22T08:33:05.172Z,42.26
2017-05-22T08:34:20.602Z,42.26
2017-05-22T08:35:31.944Z,41.99
2017-05-22T08:36:47.349Z,42.19
2017-05-22T08:38:02.958Z,41.13
2017-05-22T08:39:16.900Z,41.41
2017-05-22T08:40:29.532Z,40.76
2017-05-22T08:41:44.903Z,40.66
2017-05-22T08:43:00.457Z,40.39
2017-05-22T08:44:14.489Z,39.43
2017-05-22T08:45:29.822Z,38.6
2017-05-22T08:46:45.185Z,36.8
2017-05-22T08:48:00.758Z,35.78
2017-05-22T08:49:16.103Z,35.25
2017-05-22T08:50:31.547Z,33.73
2017-05-22T08:51:45.654Z,31.05
2017-05-22T08:53:01.213Z,29.32
2017-05-22T08:54:16.579Z,29.35
2017-05-22T08:55:31.948Z,29.36
2017-05-22T08:56:47.295Z,27.7
2017-05-22T08:58:01.567Z,26.47
2017-05-22T08:59:16.923Z,26.28
2017-05-22T09:00:32.332Z,26.09
2017-05-22T09:01:46.396Z,25.23
2017-05-22T09:03:02.035Z,24.84
2017-05-22T09:04:17.692Z,24.35
2017-05-22T09:05:33.108Z,24.45
2017-05-22T09:06:48.466Z,24.65
2017-05-22T09:08:04.159Z,24.66
2017-05-22T09:09:18.370Z,23.78
2017-05-22T09:10:32.461Z,22.72
2017-05-22T09:11:47.806Z,22.33
2017-05-22T09:13:01.864Z,22.51
2017-05-22T09:14:17.436Z,22.71
2017-05-22T09:15:33.053Z,22.61
2017-05-22T09:16:46.087Z,22.89
2017-05-22T09:18:00.213Z,22.99
2017-05-22T09:19:15.890Z,22.88
2017-05-22T09:20:31.256Z,23.56
2017-05-22T09:21:46.708Z,23.46
2017-05-22T09:22:59.384Z,22.89
2017-05-22T09:24:15.347Z,22.41
2017-05-22T09:25:30.811Z,21.74
2017-05-22T09:26:46.185Z,21.36
2017-05-22T09:27:59.029Z,20.89
2017-05-22T09:29:14.646Z,21.09
2017-05-22T09:30:30.608Z,20.71
2017-05-22T09:31:46.030Z,19.73
2017-05-22T09:33:01.407Z,19.93
2017-05-22T09:34:14.399Z,19.65
2017-05-22T09:35:29.796Z,19.65
2017-05-22T09:36:45.206Z,18.47
2017-05-22T09:38:00.576Z,18.48
2017-05-22T09:39:16.143Z,18
2017-05-22T09:40:31.581Z,17.12
2017-05-22T09:41:46.113Z,18.29
2017-05-22T09:43:01.578Z,18.27
2017-05-22T09:44:17.128Z,18.95
2017-05-22T09:45:31.213Z,19.6
2017-05-22T09:46:45.157Z,19.99
2017-05-22T09:48:00.740Z,20.47
2017-05-22T09:49:14.979Z,21.03
2017-05-22T09:50:29.279Z,21.5
2017-05-22T09:51:44.631Z,22.44
2017-05-22T09:52:58.717Z,22.44
2017-05-22T09:54:14.081Z,22.07
2017-05-22T09:55:29.913Z,21.5
2017-05-22T09:56:44.018Z,21.5
2017-05-22T09:57:59.417Z,21.43
2017-05-22T09:59:13.473Z,21.25
2017-05-22T10:00:26.786Z,20.67
2017-05-22T10:01:42.147Z,20.09
2017-05-22T10:02:57.217Z,20.48
2017-05-22T10:04:12.633Z,20.01
2017-05-22T10:05:28.179Z,19.91
2017-05-22T10:06:42.536Z,20.48
2017-05-22T10:07:57.907Z,20.86
2017-05-22T10:09:13.315Z,20.84
2017-05-22T10:10:28.885Z,20.55
2017-05-22T10:11:42.830Z,20.06
2017-05-22T10:12:57.028Z,20.16
2017-05-22T10:14:12.412Z,21.14
2017-05-22T10:15:25.094Z,21.22
2017-05-22T10:16:40.741Z,21.12
2017-05-22T10:17:56.108Z,21.31
2017-05-22T10:19:11.113Z,21.4
2017-05-22T10:20:25.177Z,22.16
2017-05-22T10:21:39.351Z,21.86
2017-05-22T10:22:54.753Z,22.53
2017-05-22T10:24:10.242Z,22.64
2017-05-22T10:25:24.313Z,22.82
2017-05-22T10:26:38.575Z,23.31
2017-05-22T10:27:52.638Z,23.2
2017-05-22T10:29:06.787Z,23.1
2017-05-22T10:30:22.154Z,22.72
2017-05-22T10:31:37.896Z,23.03
2017-05-22T10:32:51.822Z,23.13
2017-05-22T10:34:05.894Z,21.88
2017-05-22T10:35:20.305Z,21.4
2017-05-22T10:36:35.861Z,20.14
2017-05-22T10:37:51.471Z,19.46
2017-05-22T10:39:05.788Z,19.86
2017-05-22T10:40:20.118Z,19.96
2017-05-22T10:41:35.692Z,19.48
2017-05-22T10:42:51.051Z,19.57
2017-05-22T10:44:06.467Z,19.96
2017-05-22T10:45:20.585Z,19.75
2017-05-22T10:46:36.482Z,20.24
2017-05-22T10:47:50.606Z,19.85
2017-05-22T10:49:04.958Z,19.95
2017-05-22T10:50:20.342Z,19.86
2017-05-22T10:51:35.704Z,19.96
2017-05-22T10:52:51.666Z,18.9
2017-05-22T10:54:07.068Z,18.42
2017-05-22T10:55:21.156Z,18.42
2017-05-22T10:56:36.279Z,18.62
2017-05-22T10:57:49.631Z,18.32
2017-05-22T10:59:05.303Z,17.84
2017-05-22T11:00:20.708Z,18.04
2017-05-22T11:01:36.072Z,17.35
2017-05-22T11:02:50.217Z,17.45
2017-05-22T11:04:05.660Z,17.25
2017-05-22T11:05:21.051Z,17.35
2017-05-22T11:06:35.171Z,17.16
2017-05-22T11:07:49.460Z,17.25
2017-05-22T11:09:03.542Z,17.16
2017-05-22T11:10:17.631Z,17.93
2017-05-22T11:11:32.993Z,18.41
2017-05-22T11:12:46.312Z,18.41
2017-05-22T11:14:01.728Z,18.3
2017-05-22T11:15:16.116Z,19.27
2017-05-22T11:16:31.525Z,19.18
2017-05-22T11:17:47.133Z,18.98
2017-05-22T11:19:02.523Z,18.98
2017-05-22T11:20:18.025Z,19.45
2017-05-22T11:21:32.197Z,18.49
2017-05-22T11:22:48.142Z,19.37
2017-05-22T11:24:02.311Z,18.98
2017-05-22T11:25:17.672Z,18.4
2017-05-22T11:26:29.051Z,18.4
2017-05-22T11:27:43.373Z,18.88
2017-05-22T11:28:58.998Z,18.51
2017-05-22T11:30:14.300Z,18.02
2017-05-22T11:31:26.114Z,18.21
2017-05-22T11:32:41.514Z,18.23
2017-05-22T11:33:57.096Z,17.35
2017-05-22T11:35:11.034Z,17.25
2017-05-22T11:36:26.460Z,17.25
2017-05-22T11:37:41.865Z,17.65
2017-05-22T11:38:55.777Z,17.66
2017-05-22T11:40:08.427Z,17.76
2017-05-22T11:41:23.938Z,17.36
2017-05-22T11:42:38.013Z,16.09
2017-05-22T11:43:53.619Z,15.31
2017-05-22T11:45:08.988Z,16.58
2017-05-22T11:46:24.368Z,16.49
2017-05-22T11:47:38.475Z,17.07
2017-05-22T11:48:52.782Z,16.97
2017-05-22T11:50:06.882Z,17.17
2017-05-22T11:51:20.971Z,17.35
2017-05-22T11:52:36.451Z,17.35
2017-05-22T11:53:50.768Z,17.06
2017-05-22T11:55:05.491Z,17.35
2017-05-22T11:56:20.861Z,17.45
2017-05-22T11:57:33.668Z,17.06
2017-05-22T11:58:49.043Z,17.06
2017-05-22T12:00:04.824Z,17.45
2017-05-22T12:01:20.201Z,16.86
2017-05-22T12:02:34.335Z,16.48
2017-05-22T12:03:49.921Z,16.47
2017-05-22T12:05:04.280Z,16.08
2017-05-22T12:06:18.224Z,16.27
2017-05-22T12:07:33.820Z,16.56
2017-05-22T12:08:48.320Z,17.05
2017-05-22T12:10:02.890Z,17.53
2017-05-22T12:11:18.266Z,18.01
2017-05-22T12:12:33.646Z,18.19
2017-05-22T12:13:49.014Z,18.39
2017-05-22T12:15:03.293Z,17.9
2017-05-22T12:16:18.657Z,18.1
2017-05-22T12:17:32.795Z,18.38
2017-05-22T12:18:48.167Z,18.19
2017-05-22T12:20:02.560Z,18.49
2017-05-22T12:21:17.969Z,18.39
2017-05-22T12:22:32.069Z,18.58
2017-05-22T12:23:46.527Z,18.38
2017-05-22T12:25:01.948Z,18.37
2017-05-22T12:26:16.217Z,19.25
2017-05-22T12:27:30.331Z,19.06
2017-05-22T12:28:44.504Z,19.15
2017-05-22T12:30:00.111Z,19.15
2017-05-22T12:31:14.479Z,18.95
2017-05-22T12:32:28.635Z,20.01
2017-05-22T12:33:44.011Z,19.62
2017-05-22T12:34:58.095Z,19.91
2017-05-22T12:36:12.165Z,19.62
2017-05-22T12:37:27.617Z,19.81
2017-05-22T12:38:41.557Z,20.09
2017-05-22T12:39:56.940Z,20.09
2017-05-22T12:41:12.321Z,20.09
2017-05-22T12:42:27.683Z,20.09
2017-05-22T12:43:43.050Z,20.48
2017-05-22T12:44:58.467Z,20
2017-05-22T12:46:14.078Z,19.9
2017-05-22T12:47:29.565Z,19.9
2017-05-22T12:48:44.934Z,20.48
2017-05-22T12:49:59.029Z,20
2017-05-22T12:51:14.405Z,20
2017-05-22T12:52:29.996Z,20
2017-05-22T12:53:43.981Z,20.87
2017-05-22T12:54:58.082Z,20.58
2017-05-22T12:56:15.207Z,20.76
2017-05-22T12:57:30.667Z,20.76
2017-05-22T12:58:44.757Z,20.86
2017-05-22T12:59:59.773Z,21.34
2017-05-22T13:01:15.407Z,20.57
2017-05-22T13:02:30.880Z,20.85
2017-05-22T13:03:45.021Z,21.33
2017-05-22T13:05:00.038Z,21.24
2017-05-22T13:06:15.643Z,21.33
2017-05-22T13:07:29.731Z,21.43
2017-05-22T13:08:44.194Z,21.04
2017-05-22T13:09:58.297Z,21.14
2017-05-22T13:11:13.736Z,21.04
2017-05-22T13:12:29.318Z,21.24
2017-05-22T13:13:44.743Z,21.43
2017-05-22T13:15:00.162Z,21.43
2017-05-22T13:16:14.469Z,21.53
2017-05-22T13:17:30.053Z,21.51
2017-05-22T13:18:44.135Z,21.51
2017-05-22T13:19:59.513Z,21.71
2017-05-22T13:21:14.938Z,22.1
2017-05-22T13:22:30.657Z,22.38
2017-05-22T13:23:46.263Z,22.38
2017-05-22T13:25:32.394Z,22.19
2017-05-22T13:26:48.060Z,22.28
2017-05-22T13:28:03.442Z,22.19
2017-05-22T13:29:18.811Z,22.1
2017-05-22T13:30:31.497Z,21.71
2017-05-22T13:31:45.400Z,21.91
2017-05-22T13:32:58.071Z,21.91
2017-05-22T13:34:12.079Z,22.2
2017-05-22T13:35:27.455Z,22.49
2017-05-22T13:36:42.874Z,22.2
2017-05-22T13:37:58.489Z,22.49
2017-05-22T13:39:11.537Z,22.3
2017-05-22T13:40:25.483Z,22
2017-05-22T13:41:40.842Z,22.1
2017-05-22T13:42:54.119Z,21.51
2017-05-22T13:44:09.768Z,21.51
2017-05-22T13:45:23.838Z,22.1
2017-05-22T13:46:39.232Z,22.2
2017-05-22T13:47:54.838Z,21.91
2017-05-22T13:49:10.197Z,21.33
2017-05-22T13:50:25.557Z,21.33
2017-05-22T13:51:39.646Z,21.33
2017-05-22T13:52:55.201Z,21.51
2017-05-22T13:54:10.560Z,21.51
2017-05-22T13:55:25.922Z,21.71
2017-05-22T13:56:40.037Z,21.51
2017-05-22T13:57:55.697Z,21.23
2017-05-22T13:59:07.404Z,21.42
2017-05-22T14:00:22.850Z,21.51
2017-05-22T14:01:38.255Z,21.42
2017-05-22T14:02:52.763Z,21.71
2017-05-22T14:04:06.901Z,21.33
2017-05-22T14:05:20.983Z,21.33
2017-05-22T14:06:33.875Z,21.13
2017-05-22T14:07:49.228Z,21.51
2017-05-22T14:09:03.607Z,21.61
2017-05-22T14:10:15.013Z,21.51
2017-05-22T14:11:27.673Z,21.61
2017-05-22T14:12:43.064Z,21.41
2017-05-22T14:13:58.668Z,21.7
2017-05-22T14:15:14.101Z,21.41
2017-05-22T14:16:29.475Z,22.08
2017-05-22T14:17:44.912Z,22.08
2017-05-22T14:18:59.204Z,22.08
2017-05-22T14:20:13.686Z,22.36
2017-05-22T14:21:29.048Z,22.45
2017-05-22T14:22:43.127Z,22.36
2017-05-22T14:23:58.693Z,22.55
2017-05-22T14:25:14.098Z,22.74
2017-05-22T14:26:28.182Z,22.94
2017-05-22T14:27:42.135Z,22.94
2017-05-22T14:28:52.911Z,23.03
2017-05-22T14:30:08.601Z,22.74
2017-05-22T14:31:23.976Z,22.45
2017-05-22T14:32:39.416Z,23.13
2017-05-22T14:33:53.516Z,23.13
2017-05-22T14:35:09.094Z,23.23
2017-05-22T14:36:24.480Z,23.33
2017-05-22T14:37:38.555Z,23.7
2017-05-22T14:38:53.941Z,23.42
2017-05-22T14:40:09.592Z,23.33
2017-05-22T14:41:25.063Z,23.33
2017-05-22T14:42:39.184Z,22.94
2017-05-22T14:43:54.955Z,23.33
2017-05-22T14:45:09.271Z,23.81
2017-05-22T14:46:24.630Z,23.42
2017-05-22T14:47:40.032Z,23.23
2017-05-22T14:48:55.421Z,23.03
2017-05-22T14:50:08.445Z,23.33
2017-05-22T14:51:21.272Z,23.24
2017-05-22T14:52:36.666Z,23.05
2017-05-22T14:53:52.257Z,22.95
2017-05-22T14:55:06.574Z,23.05
2017-05-22T14:56:52.798Z,22.75
2017-05-22T14:58:08.157Z,22.75
2017-05-22T14:59:24.011Z,23.14
2017-05-22T15:00:38.228Z,23.82
2017-05-22T15:01:53.600Z,24.32
2017-05-22T15:03:09.103Z,24.4
2017-05-22T15:04:25.005Z,24.9
2017-05-22T15:05:40.367Z,24.71
2017-05-22T15:06:55.750Z,24.61
2017-05-22T15:08:11.357Z,24.79
2017-05-22T15:09:26.925Z,25.09
2017-05-22T15:10:42.322Z,24.9
2017-05-22T15:11:56.472Z,24.99
2017-05-22T15:13:12.198Z,24.8
2017-05-22T15:14:27.846Z,25.27
2017-05-22T15:15:40.522Z,25.37
2017-05-22T15:17:26.733Z,25.27
2017-05-22T15:18:42.134Z,25.18
2017-05-22T15:19:57.828Z,25.27
2017-05-22T15:21:13.212Z,25.65
2017-05-22T15:22:27.390Z,25.46
2017-05-22T15:23:42.762Z,25.65
2017-05-22T15:24:58.620Z,25.74
2017-05-22T15:26:14.003Z,25.65
2017-05-22T15:27:29.529Z,25.65
2017-05-22T15:28:44.894Z,26.04
2017-05-22T15:29:59.219Z,25.55
2017-05-22T15:31:14.636Z,25.55
2017-05-22T15:32:29.988Z,25.74
2017-05-22T15:33:44.067Z,25.94
2017-05-22T15:34:58.857Z,24.97
2017-05-22T15:36:14.225Z,24.87
2017-05-22T15:37:29.856Z,24.87
2017-05-22T15:38:45.300Z,24.78
2017-05-22T15:39:59.623Z,24.87
2017-05-22T15:41:15.075Z,24.97
2017-05-22T15:42:30.450Z,24.97
2017-05-22T15:43:44.382Z,24.39
2017-05-22T15:45:00.051Z,24.68
2017-05-22T15:46:14.445Z,24.87
2017-05-22T15:47:29.815Z,24.97
2017-05-22T15:48:45.281Z,25.26
2017-05-22T15:50:00.859Z,25.36
2017-05-22T15:51:16.267Z,25.65
2017-05-22T15:52:31.642Z,25.55
2017-05-22T15:53:47.028Z,25.76
2017-05-22T15:55:02.617Z,25.76
2017-05-22T15:56:17.991Z,25.18
2017-05-22T15:57:33.372Z,24.98
2017-05-22T15:58:48.784Z,24.51
2017-05-22T16:00:02.963Z,24.88
2017-05-22T16:01:18.330Z,24.99
2017-05-22T16:02:34.080Z,24.98
2017-05-22T16:03:49.444Z,24.98
2017-05-22T16:05:04.681Z,24.69
2017-05-22T16:06:18.866Z,24.98
2017-05-22T16:07:34.226Z,25.08
2017-05-22T16:08:49.658Z,25.27